K0V4

Brookneal Airport

Brookneal, Virginia, USA
METAR K0V4 180155Z AUTO 00000KT 10SM CLR 26/26 A3002 RMK AO1 T02580257
Observed Flight Rules
Aug-18 @ 01:55 UTC (35 minutes ago) Visual Flight Rules
Visibility Clouds
10 miles
  • Clear skies
Temperatures Readings
Current 26°C / 79°F
Dewpoint 26°C / 79°F
Humidity 100%
Altimeter 30.02" Hg
Pressure 1017 hPa
Elevation 182
METAR K0V4 180155Z AUTO 00000KT 10SM CLR 26/26 A3002 RMK AO1 T02580257
Observed Flight Rules
Aug-18 @ 01:55 UTC
(35 minutes ago)
VFR
Clouds
  • Clear skies
Temperature Dewpoint
26°C / 79°F 26°C / 79°F
Humidity Altimeter Pressure
100% 30.02" Hg 1017 hPa